Time;durP1;ratioP1;P1;durP2;ratioP2;P2;SDS_P1;SDS_P2;PMS_P1;PMS_P2;Temp;Humidity;BMP_temperature;BMP_pressure;BME280_temperature;BME280_humidity;BME280_pressure;Samples;Min_cycle;Max_cycle;Signal;HPM_P1;HPM_P2
2022/10/26 00:00:35;;;;;;;1999.90;999.90;;;;;;;11.89;100.00;98434.47;4981182;28;20023;-75
2022/10/26 00:03:00;;;;;;;1999.90;999.90;;;;;;;11.87;100.00;98440.25;4980271;28;20023;-76
2022/10/26 00:05:26;;;;;;;1999.90;999.90;;;;;;;11.87;100.00;98440.25;4981326;28;20061;-75
2022/10/26 00:07:51;;;;;;;1999.90;999.90;;;;;;;11.86;100.00;98440.53;4979500;28;20022;-77
2022/10/26 00:10:20;;;;;;;1999.90;999.90;;;;;;;11.87;100.00;98433.94;4976548;28;20421;-75
2022/10/26 00:12:48;;;;;;;1999.90;999.90;;;;;;;11.90;100.00;98436.09;4978228;28;20047;-75
2022/10/26 00:15:14;;;;;;;1999.90;999.90;;;;;;;11.87;100.00;98437.50;4973333;28;20034;-74
2022/10/26 00:17:39;;;;;;;1999.90;999.90;;;;;;;11.85;100.00;98449.84;4972878;28;20447;-75
2022/10/26 00:20:05;;;;;;;1999.90;999.90;;;;;;;11.75;100.00;98450.78;4972894;28;20041;-75
2022/10/26 00:22:30;;;;;;;1999.90;999.90;;;;;;;11.82;100.00;98446.59;4972626;28;20551;-74
2022/10/26 00:24:55;;;;;;;1999.90;999.90;;;;;;;11.85;100.00;98450.66;4972694;28;20039;-75
2022/10/26 00:27:21;;;;;;;1999.90;999.90;;;;;;;11.77;100.00;98449.41;4972621;28;20061;-74
2022/10/26 00:29:46;;;;;;;1999.90;999.90;;;;;;;11.71;100.00;98445.09;4972647;28;20073;-74
2022/10/26 00:32:11;;;;;;;1999.90;999.90;;;;;;;11.68;100.00;98439.34;4972364;28;20110;-74
2022/10/26 00:34:37;;;;;;;1999.90;999.90;;;;;;;11.62;100.00;98446.75;4972901;28;20049;-75
2022/10/26 00:37:02;;;;;;;1999.90;999.90;;;;;;;11.55;100.00;98451.78;4973143;28;20074;-74
2022/10/26 00:39:27;;;;;;;1999.90;999.90;;;;;;;11.52;100.00;98452.38;4972496;28;20019;-74
2022/10/26 00:41:53;;;;;;;1999.90;999.90;;;;;;;11.58;100.00;98440.25;4972420;28;20551;-74
2022/10/26 00:44:43;;;;;;;1999.90;999.90;;;;;;;11.57;100.00;98444.09;4972240;28;20066;-74
2022/10/26 00:47:10;;;;;;;1999.90;999.90;;;;;;;11.59;100.00;98433.66;4972594;28;20058;-75
2022/10/26 00:49:35;;;;;;;1999.90;999.90;;;;;;;11.63;100.00;98442.94;4971134;28;20046;-75
2022/10/26 00:52:01;;;;;;;1999.90;999.90;;;;;;;11.60;100.00;98442.69;4971068;28;20151;-75
2022/10/26 00:54:26;;;;;;;1999.90;999.90;;;;;;;11.58;100.00;98439.44;4972173;28;20034;-75
2022/10/26 00:56:54;;;;;;;1999.90;999.90;;;;;;;11.59;100.00;98452.03;4972306;28;20109;-74
2022/10/26 00:59:21;;;;;;;1999.90;999.90;;;;;;;11.58;100.00;98445.72;4972102;28;20035;-74
2022/10/26 01:01:47;;;;;;;1999.90;999.90;;;;;;;11.61;100.00;98449.81;4971978;28;20018;-74
2022/10/26 01:04:14;;;;;;;1999.90;999.90;;;;;;;11.61;100.00;98453.38;4971026;28;20022;-73
2022/10/26 01:06:41;;;;;;;1999.90;999.90;;;;;;;11.65;100.00;98453.59;4972599;28;20026;-74
2022/10/26 01:09:08;;;;;;;1999.90;999.90;;;;;;;11.68;100.00;98451.09;4972077;28;20504;-75
2022/10/26 01:11:33;;;;;;;1999.90;999.90;;;;;;;11.64;100.00;98452.78;4972006;28;20026;-74
2022/10/26 01:14:01;;;;;;;1999.90;999.90;;;;;;;11.68;100.00;98453.81;4971045;28;20019;-74
2022/10/26 01:17:03;;;;;;;1999.90;999.90;;;;;;;11.72;100.00;98452.19;4971545;28;20089;-75
2022/10/26 01:19:41;;;;;;;1999.90;999.90;;;;;;;11.55;100.00;98449.06;4969649;28;20097;-75
2022/10/26 01:22:14;;;;;;;1999.90;999.90;;;;;;;11.51;100.00;98445.25;4971641;28;20030;-74
2022/10/26 01:24:51;;;;;;;1999.90;999.90;;;;;;;11.52;100.00;98446.06;4971536;28;20035;-74
2022/10/26 01:27:40;;;;;;;1999.90;999.90;;;;;;;11.58;100.00;98448.47;4971484;28;20404;-74
2022/10/26 01:30:15;;;;;;;1999.90;999.90;;;;;;;11.47;100.00;98449.66;4968688;28;20038;-74
2022/10/26 01:33:13;;;;;;;1999.90;999.90;;;;;;;11.35;100.00;98438.28;4975991;28;20039;-74
2022/10/26 01:35:59;;;;;;;1999.90;999.90;;;;;;;11.33;100.00;98432.28;4978834;28;20058;-75
2022/10/26 01:38:43;;;;;;;1999.90;999.90;;;;;;;11.31;100.00;98439.16;4974104;28;20027;-75
2022/10/26 01:41:17;;;;;;;1999.90;999.90;;;;;;;11.28;100.00;98443.25;4973991;28;20153;-75
2022/10/26 01:43:50;;;;;;;1999.90;999.90;;;;;;;11.21;100.00;98435.38;4971486;28;20034;-75
2022/10/26 01:46:17;;;;;;;1999.90;999.90;;;;;;;11.14;100.00;98434.91;4971752;28;20118;-73
2022/10/26 01:48:44;;;;;;;1999.90;999.90;;;;;;;11.08;100.00;98438.81;4971699;28;20484;-73
2022/10/26 01:51:12;;;;;;;1999.90;999.90;;;;;;;11.00;100.00;98430.38;4970216;28;20077;-74
2022/10/26 01:53:44;;;;;;;1999.90;999.90;;;;;;;10.98;100.00;98424.38;4971607;28;20038;-74
2022/10/26 01:56:19;;;;;;;1999.90;999.90;;;;;;;10.92;100.00;98414.56;4971781;28;20026;-73
2022/10/26 01:59:18;;;;;;;1999.90;999.90;;;;;;;10.91;100.00;98413.75;4971419;28;20473;-75
2022/10/26 02:01:47;;;;;;;1999.90;999.90;;;;;;;10.88;100.00;98408.84;4970442;28;20062;-75
2022/10/26 02:04:27;;;;;;;1999.90;999.90;;;;;;;10.92;100.00;98403.63;4971510;28;20543;-73
2022/10/26 02:07:05;;;;;;;1999.90;999.90;;;;;;;11.02;100.00;98409.03;4971982;28;20042;-75
2022/10/26 02:10:16;;;;;;;1999.90;999.90;;;;;;;11.03;100.00;98405.16;4971449;28;20447;-74
2022/10/26 02:12:48;;;;;;;1999.90;999.90;;;;;;;10.96;100.00;98401.94;4971533;28;20120;-75
2022/10/26 02:15:16;;;;;;;1999.90;999.90;;;;;;;10.96;100.00;98410.16;4971258;28;20053;-74
2022/10/26 02:17:48;;;;;;;1999.90;999.90;;;;;;;11.02;100.00;98406.28;4970056;28;20475;-74
2022/10/26 02:20:21;;;;;;;1999.90;999.90;;;;;;;11.07;100.00;98401.56;4972792;28;20043;-74
2022/10/26 02:22:51;;;;;;;1999.90;999.90;;;;;;;11.18;100.00;98408.56;4978342;28;20050;-75
2022/10/26 02:25:29;;;;;;;1999.90;999.90;;;;;;;11.03;100.00;98411.44;4973920;28;20098;-75
2022/10/26 02:27:59;;;;;;;1999.90;999.90;;;;;;;10.93;100.00;98418.94;4974838;28;20027;-74
2022/10/26 02:30:25;;;;;;;1999.90;999.90;;;;;;;10.92;100.00;98409.09;4974838;28;20135;-73
2022/10/26 02:32:55;;;;;;;1999.90;999.90;;;;;;;10.92;100.00;98409.09;4974746;28;20041;-74
2022/10/26 02:35:25;;;;;;;1999.90;999.90;;;;;;;10.97;100.00;98412.59;4973641;28;20034;-74
2022/10/26 02:37:54;;;;;;;1999.90;999.90;;;;;;;10.99;100.00;98404.94;4973750;28;20031;-74
2022/10/26 02:40:24;;;;;;;1999.90;999.90;;;;;;;11.04;100.00;98395.84;4973364;28;20034;-74
2022/10/26 02:42:52;;;;;;;1999.90;999.90;;;;;;;11.01;100.00;98394.50;4974745;28;20042;-74
2022/10/26 02:45:23;;;;;;;1999.90;999.90;;;;;;;11.04;100.00;98393.94;4974554;28;20085;-74
2022/10/26 02:47:49;;;;;;;1999.90;999.90;;;;;;;10.99;100.00;98401.38;4974633;28;20034;-74
2022/10/26 02:50:15;;;;;;;1999.90;999.90;;;;;;;11.07;100.00;98408.97;4974543;28;20023;-74
2022/10/26 02:53:09;;;;;;;1999.90;999.90;;;;;;;11.04;100.00;98407.63;4974401;28;20120;-74
2022/10/26 02:55:45;;;;;;;1999.90;999.90;;;;;;;11.00;100.00;98403.00;4974289;28;20152;-74
2022/10/26 02:58:17;;;;;;;1999.90;999.90;;;;;;;11.04;100.00;98417.75;4973535;28;20039;-75
2022/10/26 03:00:43;;;;;;;1999.90;999.90;;;;;;;10.98;100.00;98414.25;4962371;28;20383;-75
2022/10/26 03:03:09;;;;;;;1999.90;999.90;;;;;;;11.05;100.00;98411.19;4974382;28;20118;-74
2022/10/26 03:05:35;;;;;;;1999.90;999.90;;;;;;;11.07;100.00;98415.25;4976542;28;20113;-76
2022/10/26 03:08:01;;;;;;;1999.90;999.90;;;;;;;11.09;100.00;98406.75;4975740;28;20082;-74
2022/10/26 03:10:27;;;;;;;1999.90;999.90;;;;;;;11.10;100.00;98406.47;4972338;28;20027;-74
2022/10/26 03:12:53;;;;;;;1999.90;999.90;;;;;;;11.02;100.00;98411.75;4972616;28;20686;-74
2022/10/26 03:15:18;;;;;;;1999.90;999.90;;;;;;;11.06;100.00;98412.78;4973544;28;20039;-75
2022/10/26 03:17:43;;;;;;;1999.90;999.90;;;;;;;11.13;100.00;98397.69;4973743;28;20022;-74
2022/10/26 03:20:09;;;;;;;1999.90;999.90;;;;;;;11.23;100.00;98400.31;4971424;28;20383;-74
2022/10/26 03:22:35;;;;;;;1999.90;999.90;;;;;;;11.20;100.00;98391.88;4973728;28;20388;-74
2022/10/26 03:25:00;;;;;;;1999.90;999.90;;;;;;;11.17;100.00;98401.50;4973697;28;20534;-73
2022/10/26 03:27:26;;;;;;;1999.90;999.90;;;;;;;11.20;100.00;98400.91;4972101;28;20035;-74
2022/10/26 03:29:51;;;;;;;1999.90;999.90;;;;;;;11.24;100.00;98393.72;4973701;28;20036;-73
2022/10/26 03:32:17;;;;;;;1999.90;999.90;;;;;;;11.28;100.00;98400.28;4973459;28;20069;-74
2022/10/26 03:34:42;;;;;;;1999.90;999.90;;;;;;;11.25;100.00;98402.75;4973422;28;20031;-73
2022/10/26 03:37:08;;;;;;;1999.90;999.90;;;;;;;11.28;100.00;98403.00;4971624;28;20023;-74
2022/10/26 03:39:33;;;;;;;1999.90;999.90;;;;;;;11.17;100.00;98384.22;4973417;28;20073;-74
2022/10/26 03:41:58;;;;;;;1999.90;999.90;;;;;;;11.07;100.00;98378.84;4973351;28;20044;-74
2022/10/26 03:44:24;;;;;;;1999.90;999.90;;;;;;;10.99;100.00;98385.78;4973224;28;20452;-73
2022/10/26 03:46:49;;;;;;;1999.90;999.90;;;;;;;11.03;100.00;98377.78;4973176;28;20064;-73
2022/10/26 03:49:14;;;;;;;1999.90;999.90;;;;;;;11.02;100.00;98392.59;4973410;28;20033;-74
2022/10/26 03:51:40;;;;;;;1999.90;999.90;;;;;;;10.92;100.00;98392.66;4973205;28;20030;-75
2022/10/26 03:54:06;;;;;;;1999.90;999.90;;;;;;;10.93;100.00;98386.09;4971718;28;20033;-75
2022/10/26 03:56:31;;;;;;;1999.90;999.90;;;;;;;10.81;100.00;98396.63;4973010;28;20034;-75
2022/10/26 03:58:57;;;;;;;1999.90;999.90;;;;;;;10.85;100.00;98395.75;4972837;28;20481;-75
2022/10/26 04:01:22;;;;;;;1999.90;999.90;;;;;;;10.82;100.00;98403.69;4971714;28;20166;-75
2022/10/26 04:03:47;;;;;;;1999.90;999.90;;;;;;;10.80;100.00;98403.19;4972937;28;20102;-75
2022/10/26 04:06:13;;;;;;;1999.90;999.90;;;;;;;10.90;100.00;98405.84;4973401;28;20370;-75
2022/10/26 04:08:38;;;;;;;1999.90;999.90;;;;;;;11.01;100.00;98404.63;4972814;28;20605;-75
2022/10/26 04:11:03;;;;;;;1999.90;999.90;;;;;;;11.03;100.00;98411.44;4972958;28;20066;-75
2022/10/26 04:13:29;;;;;;;1999.90;999.90;;;;;;;10.97;100.00;98403.56;4972743;28;20034;-75
2022/10/26 04:15:54;;;;;;;1999.90;999.90;;;;;;;10.98;100.00;98397.81;4972487;28;20592;-75
2022/10/26 04:18:19;;;;;;;1999.90;999.90;;;;;;;11.01;100.00;98393.69;4971331;28;20737;-75
2022/10/26 04:20:45;;;;;;;1999.90;999.90;;;;;;;10.88;100.00;98392.44;4972674;28;20042;-74
2022/10/26 04:23:13;;;;;;;1999.90;999.90;;;;;;;10.96;100.00;98393.75;4972546;28;20042;-75
2022/10/26 04:25:39;;;;;;;1999.90;999.90;;;;;;;10.98;100.00;98370.44;4972578;28;20050;-75
2022/10/26 04:28:06;;;;;;;1999.90;999.90;;;;;;;10.92;100.00;98370.78;4972564;28;20494;-74
2022/10/26 04:30:32;;;;;;;1999.90;999.90;;;;;;;10.88;100.00;98375.19;4973108;28;20392;-75
2022/10/26 04:32:58;;;;;;;1999.90;999.90;;;;;;;10.78;100.00;98378.81;4977671;28;20492;-76
2022/10/26 04:35:23;;;;;;;1999.90;999.90;;;;;;;10.77;100.00;98388.16;4975954;28;20118;-75
2022/10/26 04:37:49;;;;;;;1999.90;999.90;;;;;;;10.69;100.00;98389.56;4973445;28;20033;-75
2022/10/26 04:40:15;;;;;;;1999.90;999.90;;;;;;;10.80;100.00;98387.59;4973827;28;20133;-75
2022/10/26 04:42:45;;;;;;;1999.90;999.90;;;;;;;10.79;100.00;98394.16;4973564;28;20109;-75
2022/10/26 04:45:12;;;;;;;1999.90;999.90;;;;;;;10.77;100.00;98395.53;4973457;28;20097;-75
2022/10/26 04:47:37;;;;;;;1999.90;999.90;;;;;;;10.79;100.00;98385.13;4970943;28;20027;-75
2022/10/26 04:50:03;;;;;;;1999.90;999.90;;;;;;;10.79;100.00;98387.84;4972214;28;20029;-75
2022/10/26 04:52:29;;;;;;;1999.90;999.90;;;;;;;10.80;100.00;98394.97;4972131;28;20133;-74
2022/10/26 04:54:54;;;;;;;1999.90;999.90;;;;;;;10.74;100.00;98386.78;4971799;28;20037;-74
2022/10/26 04:57:19;;;;;;;1999.90;999.90;;;;;;;10.81;100.00;98394.66;4971980;28;20026;-74
2022/10/26 04:59:45;;;;;;;1999.90;999.90;;;;;;;10.94;100.00;98393.19;4970439;28;20046;-75
2022/10/26 05:02:10;;;;;;;1999.90;999.90;;;;;;;11.05;100.00;98378.34;4972069;28;20041;-75
2022/10/26 05:04:35;;;;;;;1999.90;999.90;;;;;;;11.05;100.00;98389.28;4971874;28;20054;-75
2022/10/26 05:07:01;;;;;;;1999.90;999.90;;;;;;;11.04;100.00;98387.63;4972223;28;20042;-75
2022/10/26 05:09:26;;;;;;;1999.90;999.90;;;;;;;11.10;100.00;98384.56;4970553;28;20113;-75
2022/10/26 05:11:51;;;;;;;1999.90;999.90;;;;;;;11.14;100.00;98393.84;4971912;28;20424;-75
2022/10/26 05:14:17;;;;;;;1999.90;999.90;;;;;;;11.20;100.00;98389.97;4971770;28;20026;-75
2022/10/26 05:16:43;;;;;;;1999.90;999.90;;;;;;;11.20;100.00;98386.41;4971898;28;20050;-75
2022/10/26 05:19:09;;;;;;;1999.90;999.90;;;;;;;11.19;100.00;98382.00;4972235;28;20035;-75
2022/10/26 05:21:35;;;;;;;1999.90;999.90;;;;;;;11.11;100.00;98383.47;4963863;28;20038;-74
2022/10/26 05:24:00;;;;;;;1999.90;999.90;;;;;;;11.13;100.00;98383.16;4965729;28;20031;-74
2022/10/26 05:26:25;;;;;;;1999.90;999.90;;;;;;;11.17;100.00;98381.50;4961402;28;20485;-75
2022/10/26 05:28:51;;;;;;;1999.90;999.90;;;;;;;11.16;100.00;98371.63;4963465;28;20035;-74
2022/10/26 05:31:17;;;;;;;1999.90;999.90;;;;;;;11.12;100.00;98373.34;4979502;28;20018;-76
2022/10/26 05:33:42;;;;;;;1999.90;999.90;;;;;;;11.11;100.00;98374.44;4981137;28;20062;-74
2022/10/26 05:36:07;;;;;;;1999.90;999.90;;;;;;;11.00;100.00;98370.97;4970368;28;20035;-75
2022/10/26 05:38:33;;;;;;;1999.90;999.90;;;;;;;10.99;100.00;98376.75;4971383;28;20038;-75
2022/10/26 05:41:00;;;;;;;1999.90;999.90;;;;;;;11.02;100.00;98387.13;4971473;28;20097;-75
2022/10/26 05:43:26;;;;;;;1999.90;999.90;;;;;;;10.99;100.00;98387.69;4970718;28;20354;-75
2022/10/26 05:45:52;;;;;;;1999.90;999.90;;;;;;;10.99;100.00;98387.69;4971146;28;20121;-74
2022/10/26 05:48:17;;;;;;;1999.90;999.90;;;;;;;11.06;100.00;98399.09;4970411;28;20121;-75
2022/10/26 05:50:43;;;;;;;1999.90;999.90;;;;;;;11.14;100.00;98406.72;4970544;28;20037;-75
2022/10/26 05:53:09;;;;;;;1999.90;999.90;;;;;;;11.16;100.00;98416.28;4971651;28;20031;-75
2022/10/26 05:55:34;;;;;;;1999.90;999.90;;;;;;;11.30;100.00;98416.44;4971103;28;20051;-74
2022/10/26 05:58:00;;;;;;;1999.90;999.90;;;;;;;11.38;100.00;98410.31;4972706;28;20027;-77
2022/10/26 06:00:27;;;;;;;1999.90;999.90;;;;;;;11.40;100.00;98410.84;4964095;28;20027;-79
2022/10/26 06:03:14;;;;;;;1999.90;999.90;;;;;;;11.52;100.00;98414.00;4960195;28;20031;-77
2022/10/26 06:05:56;;;;;;;1999.90;999.90;;;;;;;11.52;100.00;98430.44;4971313;28;20031;-78
2022/10/26 06:08:24;;;;;;;1999.90;999.90;;;;;;;11.51;100.00;98439.75;4980157;28;20396;-80
2022/10/26 06:10:50;;;;;;;1999.90;999.90;;;;;;;11.59;100.00;98432.84;4988074;28;20023;-81
2022/10/26 06:13:16;;;;;;;1999.90;999.90;;;;;;;11.67;100.00;98433.03;4987195;28;20122;-77
2022/10/26 06:16:19;;;;;;;1999.90;999.90;;;;;;;11.83;100.00;98430.97;4989463;28;20038;-79
2022/10/26 06:19:00;;;;;;;1999.90;999.90;;;;;;;11.84;100.00;98434.53;4971272;28;20039;-78
2022/10/26 06:21:37;;;;;;;1999.90;999.90;;;;;;;11.87;100.00;98425.72;4956508;29;20039;-77
2022/10/26 06:24:08;;;;;;;1999.90;999.90;;;;;;;11.89;100.00;98434.47;4957780;29;20071;-77
2022/10/26 06:26:49;;;;;;;1999.90;999.90;;;;;;;11.79;100.00;98436.22;4956002;29;20066;-75
2022/10/26 06:29:31;;;;;;;1999.90;999.90;;;;;;;11.79;100.00;98438.13;4959956;28;20031;-79
2022/10/26 06:31:56;;;;;;;1999.90;999.90;;;;;;;11.94;100.00;98421.50;4991621;28;20479;-75
2022/10/26 06:34:28;;;;;;;1999.90;999.90;;;;;;;11.89;100.00;98423.50;4976826;28;20058;-77
2022/10/26 06:36:56;;;;;;;1999.90;999.90;;;;;;;11.81;100.00;98431.25;4977753;28;20038;-78
2022/10/26 06:39:24;;;;;;;1999.90;999.90;;;;;;;11.99;100.00;98448.88;4980094;28;20035;-76
2022/10/26 06:41:50;;;;;;;1999.90;999.90;;;;;;;11.91;100.00;98443.19;4986246;28;20046;-78
2022/10/26 06:44:22;;;;;;;1999.90;999.90;;;;;;;12.04;100.00;98448.81;5004147;28;20069;-80
2022/10/26 06:47:04;;;;;;;1999.90;999.90;;;;;;;12.05;100.00;98438.66;4993547;28;20030;-78
2022/10/26 06:49:41;;;;;;;1999.90;999.90;;;;;;;12.02;100.00;98431.03;4993903;28;20443;-78
2022/10/26 06:52:20;;;;;;;1999.90;999.90;;;;;;;11.98;100.00;98433.53;4994427;28;20038;-79
2022/10/26 06:54:50;;;;;;;1999.90;999.90;;;;;;;11.98;100.00;98427.22;4994999;28;20064;-77
2022/10/26 06:57:18;;;;;;;1999.90;999.90;;;;;;;11.83;100.00;98441.94;4995437;28;20057;-79
2022/10/26 06:59:52;;;;;;;1999.90;999.90;;;;;;;11.86;100.00;98443.25;4995734;28;20025;-80
2022/10/26 07:02:18;;;;;;;1999.90;999.90;;;;;;;11.84;100.00;98453.72;5000012;28;20034;-81
2022/10/26 07:04:44;;;;;;;1999.90;999.90;;;;;;;11.93;100.00;98462.94;5003491;28;20051;-79
2022/10/26 07:07:13;;;;;;;1999.90;999.90;;;;;;;12.07;100.00;98463.84;5003050;28;20057;-84
2022/10/26 07:09:38;;;;;;;1999.90;999.90;;;;;;;12.15;100.00;98468.72;5008214;28;20013;-72
2022/10/26 07:12:04;;;;;;;1999.90;999.90;;;;;;;12.22;100.00;98466.41;5001148;28;20031;-79
2022/10/26 07:14:29;;;;;;;1999.90;999.90;;;;;;;12.28;100.00;98470.72;5002071;28;20488;-82
2022/10/26 07:16:55;;;;;;;1999.90;999.90;;;;;;;12.29;100.00;98484.16;5004709;28;20035;-81
2022/10/26 07:19:21;;;;;;;1999.90;999.90;;;;;;;12.36;100.00;98470.06;5005803;28;20054;-81
2022/10/26 07:21:46;;;;;;;1999.90;999.90;;;;;;;12.39;100.00;98469.50;5004103;28;20484;-80
2022/10/26 07:24:12;;;;;;;1999.90;999.90;;;;;;;12.39;100.00;98477.72;5003630;28;20031;-81
2022/10/26 07:26:37;;;;;;;1999.90;999.90;;;;;;;12.30;100.00;98490.47;5006006;28;20038;-80
2022/10/26 07:29:02;;;;;;;1999.90;999.90;;;;;;;12.25;100.00;98505.03;5003804;28;20030;-80
2022/10/26 07:31:27;;;;;;;1999.90;999.90;;;;;;;12.30;100.00;98496.75;5003591;28;20033;-81
2022/10/26 07:33:53;;;;;;;1999.90;999.90;;;;;;;12.35;100.00;98485.72;4998390;28;20022;-78
2022/10/26 07:36:19;;;;;;;1999.90;999.90;;;;;;;12.22;100.00;98496.56;5002570;28;20058;-81
2022/10/26 07:38:44;;;;;;;1999.90;999.90;;;;;;;12.31;100.00;98481.09;5002991;28;20408;-81
2022/10/26 07:41:09;;;;;;;1999.90;999.90;;;;;;;12.30;100.00;98479.47;4997139;28;20026;-81
2022/10/26 07:43:34;;;;;;;1999.90;999.90;;;;;;;12.29;100.00;98472.34;4998454;28;20062;-81
2022/10/26 07:46:00;;;;;;;1999.90;999.90;;;;;;;12.31;100.00;98475.59;5001651;28;20133;-80
2022/10/26 07:48:25;;;;;;;1999.90;999.90;;;;;;;12.37;100.00;98465.41;5003024;28;20480;-79
2022/10/26 07:50:51;;;;;;;1999.90;999.90;;;;;;;12.18;100.00;98460.72;5000193;28;20485;-81
2022/10/26 07:53:16;;;;;;;1999.90;999.90;;;;;;;12.34;100.00;98462.13;5001769;28;20022;-80
2022/10/26 07:55:41;;;;;;;1999.90;999.90;;;;;;;12.44;100.00;98476.81;5001724;28;20065;-80
2022/10/26 07:58:07;;;;;;;1999.90;999.90;;;;;;;12.41;100.00;98477.41;5002614;28;20026;-81
2022/10/26 08:00:32;;;;;;;1999.90;999.90;;;;;;;12.44;100.00;98474.06;5002218;28;20030;-80
2022/10/26 08:02:57;;;;;;;1999.90;999.90;;;;;;;12.42;100.00;98470.81;5003836;28;20023;-81
2022/10/26 08:05:23;;;;;;;1999.90;999.90;;;;;;;12.49;100.00;98476.78;5002454;28;20042;-81
2022/10/26 08:07:48;;;;;;;1999.90;999.90;;;;;;;12.50;100.00;98490.19;5001531;28;20019;-80
2022/10/26 08:10:14;;;;;;;1999.90;999.90;;;;;;;12.34;100.00;98486.03;5000757;28;20058;-78
2022/10/26 08:12:41;;;;;;;1999.90;999.90;;;;;;;12.21;100.00;98482.06;5003848;28;20037;-80
2022/10/26 08:15:07;;;;;;;1999.90;999.90;;;;;;;12.30;100.00;98474.81;5003226;28;20035;-79
2022/10/26 08:17:33;;;;;;;1999.90;999.90;;;;;;;12.28;100.00;98481.69;4996887;28;20034;-81
2022/10/26 08:20:01;;;;;;;1999.90;999.90;;;;;;;12.21;100.00;98481.25;4991981;28;20412;-81
2022/10/26 08:22:30;;;;;;;1999.90;999.90;;;;;;;12.28;100.00;98487.16;4987042;28;20105;-80
2022/10/26 08:24:55;;;;;;;1999.90;999.90;;;;;;;12.48;100.00;98492.41;4988470;28;20038;-82
2022/10/26 08:27:20;;;;;;;1999.90;999.90;;;;;;;12.66;100.00;98494.34;4993479;28;20026;-81
2022/10/26 08:29:46;;;;;;;1999.90;999.90;;;;;;;12.67;100.00;98486.94;4996025;28;20022;-81
2022/10/26 08:32:11;;;;;;;1999.90;999.90;;;;;;;12.78;100.00;98491.97;4992994;28;20054;-80
2022/10/26 08:34:37;;;;;;;1999.90;999.90;;;;;;;12.72;100.00;98487.69;4991023;28;20026;-80
2022/10/26 08:37:03;;;;;;;1999.90;999.90;;;;;;;12.80;100.00;98487.03;4993636;28;20057;-80
2022/10/26 08:39:29;;;;;;;1999.90;999.90;;;;;;;12.78;100.00;98486.50;4993278;28;20034;-79
2022/10/26 08:42:05;;;;;;;1999.90;999.90;;;;;;;12.57;100.00;98485.16;4998157;28;20474;-81
2022/10/26 08:44:50;;;;;;;1999.90;999.90;;;;;;;12.53;100.00;98489.59;4981826;28;20077;-81
2022/10/26 08:47:21;;;;;;;1999.90;999.90;;;;;;;12.40;100.00;98490.34;4977255;28;20050;-82
2022/10/26 08:49:59;;;;;;;1999.90;999.90;;;;;;;12.34;100.00;98475.84;4981414;28;20035;-82
2022/10/26 08:52:43;;;;;;;1999.90;999.90;;;;;;;12.34;100.00;98481.31;4980453;28;20039;-82
2022/10/26 08:55:16;;;;;;;1999.90;999.90;;;;;;;12.32;100.00;98482.75;4983547;28;20088;-82
2022/10/26 08:57:49;;;;;;;1999.90;999.90;;;;;;;12.37;100.00;98485.44;4988818;28;20041;-83
2022/10/26 09:00:19;;;;;;;1999.90;999.90;;;;;;;12.45;100.00;98481.19;4985878;28;20051;-81
2022/10/26 09:02:48;;;;;;;1999.90;999.90;;;;;;;12.42;100.00;98484.53;4976345;28;20074;-83
2022/10/26 09:05:16;;;;;;;1999.90;999.90;;;;;;;12.46;100.00;98482.84;4985026;28;20019;-83
2022/10/26 09:08:25;;;;;;;1999.90;999.90;;;;;;;12.44;100.00;98480.38;4986615;28;20043;-83
2022/10/26 09:11:05;;;;;;;1999.90;999.90;;;;;;;12.51;100.00;98472.63;4993986;28;20034;-80
2022/10/26 09:13:39;;;;;;;1999.90;999.90;;;;;;;12.56;100.00;98480.75;4986459;28;20046;-81
2022/10/26 09:16:37;;;;;;;1999.90;999.90;;;;;;;12.64;100.00;98488.34;4979801;28;20073;-84
2022/10/26 09:19:22;;;;;;;1999.90;999.90;;;;;;;12.77;100.00;98487.63;4978591;28;20051;-82
2022/10/26 09:22:15;;;;;;;1999.90;999.90;;;;;;;12.68;100.00;98486.66;4983992;28;20420;-82
2022/10/26 09:24:58;;;;;;;1999.90;999.90;;;;;;;12.88;100.00;98494.59;4977419;28;20019;-82
2022/10/26 09:27:30;;;;;;;1999.90;999.90;;;;;;;13.02;100.00;98491.09;4976327;28;20034;-82
2022/10/26 09:29:59;;;;;;;1999.90;999.90;;;;;;;13.08;100.00;98489.91;4986837;28;20034;-81
2022/10/26 09:32:33;;;;;;;1999.90;999.90;;;;;;;13.14;100.00;98491.50;4984998;28;20027;-82
2022/10/26 09:35:03;;;;;;;1999.90;999.90;;;;;;;13.71;100.00;98499.34;4971935;28;20033;-77
2022/10/26 09:37:36;;;;;;;1999.90;999.90;;;;;;;14.21;100.00;98507.75;4985169;28;20038;-83
2022/10/26 09:40:19;;;;;;;1999.90;999.90;;;;;;;14.27;100.00;98503.78;4986469;28;20039;-82
2022/10/26 09:42:54;;;;;;;1999.90;999.90;;;;;;;14.16;100.00;98499.59;4990451;28;20070;-82
2022/10/26 09:45:30;;;;;;;1999.90;999.90;;;;;;;14.59;100.00;98489.09;4989472;28;20047;-82
2022/10/26 09:48:03;;;;;;;1999.90;999.90;;;;;;;14.83;100.00;98497.94;4989598;28;20027;-82
2022/10/26 09:50:32;;;;;;;1999.90;999.90;;;;;;;14.62;100.00;98494.81;4988035;28;20023;-83
2022/10/26 09:52:57;;;;;;;1999.90;999.90;;;;;;;14.61;100.00;98490.41;4988617;28;20015;-80
2022/10/26 09:55:23;;;;;;;1999.90;999.90;;;;;;;14.95;100.00;98487.19;4990628;28;20058;-83
2022/10/26 09:57:55;;;;;;;1999.90;999.90;;;;;;;15.02;100.00;98499.41;4989826;28;20077;-83
2022/10/26 10:00:22;;;;;;;1999.90;999.90;;;;;;;14.92;100.00;98493.31;4991042;28;20022;-82
2022/10/26 10:02:56;;;;;;;1999.90;999.90;;;;;;;14.64;100.00;98489.81;4989347;28;20023;-83
2022/10/26 10:05:33;;;;;;;1999.90;999.90;;;;;;;14.89;100.00;98497.50;4989742;28;20030;-82
2022/10/26 10:08:14;;;;;;;1999.90;999.90;;;;;;;14.73;100.00;98500.91;4991330;28;20022;-83
2022/10/26 10:10:53;;;;;;;1999.90;999.90;;;;;;;14.82;100.00;98480.56;4989400;28;20030;-79
2022/10/26 10:13:20;;;;;;;1999.90;999.90;;;;;;;14.90;100.00;98498.31;4986854;28;20046;-82
2022/10/26 10:16:18;;;;;;;1999.90;999.90;;;;;;;14.78;100.00;98501.63;4985953;28;20041;-81
2022/10/26 10:18:55;;;;;;;1999.90;999.90;;;;;;;15.29;100.00;98500.41;4986327;28;20034;-83
2022/10/26 10:21:30;;;;;;;1999.90;999.90;;;;;;;14.92;100.00;98498.81;4985924;28;20094;-82
2022/10/26 10:23:56;;;;;;;;;;;;;;;15.09;100.00;98498.16;4986217;28;20078;-82
2022/10/26 10:26:21;;;;;;;1999.90;999.90;;;;;;;15.61;100.00;98502.97;4986079;28;19914;-82
2022/10/26 10:29:00;;;;;;;1999.90;999.90;;;;;;;16.77;100.00;98497.00;4985823;28;20280;-84
2022/10/26 10:31:31;;;;;;;1999.90;999.90;;;;;;;17.61;100.00;98510.38;4984279;28;20031;-83
2022/10/26 10:33:57;;;;;;;1999.90;999.90;;;;;;;18.31;100.00;98518.19;4980330;28;20038;-83
2022/10/26 10:36:25;;;;;;;1999.90;999.90;;;;;;;17.90;100.00;98507.75;4978730;28;20030;-83
2022/10/26 10:38:52;;;;;;;1999.90;999.90;;;;;;;18.11;100.00;98505.06;4987265;28;20034;-83
2022/10/26 10:41:20;;;;;;;1999.90;999.90;;;;;;;19.55;100.00;98500.97;4988165;28;20014;-84
2022/10/26 10:43:49;;;;;;;1999.90;999.90;;;;;;;20.46;100.00;98508.16;4988500;28;20031;-83
2022/10/26 10:46:24;;;;;;;1999.90;999.90;;;;;;;20.57;100.00;98503.78;4988418;28;20023;-83
2022/10/26 10:49:01;;;;;;;1999.90;999.90;;;;;;;19.69;100.00;98499.53;4986786;28;20030;-79
2022/10/26 10:51:29;;;;;;;1999.90;999.90;;;;;;;20.32;100.00;98496.59;4987743;28;20041;-83
2022/10/26 10:53:55;;;;;;;1999.90;999.90;;;;;;;21.01;100.00;98507.56;4988405;28;20043;-81
2022/10/26 10:56:41;;;;;;;1999.90;999.90;;;;;;;21.36;100.00;98512.25;4988029;28;20027;-82
2022/10/26 10:59:24;;;;;;;1999.90;999.90;;;;;;;21.45;94.16;98511.34;4989944;28;20039;-82